Time;durP1;ratioP1;P1;durP2;ratioP2;P2;SDS_P1;SDS_P2;PMS_P1;PMS_P2;Temp;Humidity;BMP_temperature;BMP_pressure;BME280_temperature;BME280_humidity;BME280_pressure;Samples;Min_cycle;Max_cycle;Signal;HPM_P1;HPM_P2
2022/08/28 00:02:16;;;;;;;5.20;3.70;;;24.50;57.80;;;;;;5033696;28;20022;-68
2022/08/28 00:04:42;;;;;;;7.05;4.03;;;24.50;57.90;;;;;;5033665;28;20021;-68
2022/08/28 00:07:08;;;;;;;10.65;4.30;;;24.50;57.80;;;;;;5034355;28;20070;-68
2022/08/28 00:09:34;;;;;;;5.00;4.07;;;24.50;57.80;;;;;;5033347;28;20025;-68
2022/08/28 00:12:01;;;;;;;6.90;3.47;;;24.50;57.80;;;;;;5033413;28;20092;-68
2022/08/28 00:14:27;;;;;;;4.00;3.58;;;24.50;57.70;;;;;;5033406;28;20036;-68
2022/08/28 00:16:53;;;;;;;5.50;3.97;;;24.50;58.40;;;;;;5033440;28;20104;-67
2022/08/28 00:19:21;;;;;;;4.65;3.90;;;24.50;57.90;;;;;;5033365;28;20108;-68
2022/08/28 00:21:47;;;;;;;4.97;3.90;;;24.50;57.90;;;;;;5012204;28;20052;-68
2022/08/28 00:24:13;;;;;;;6.20;3.97;;;24.50;58.00;;;;;;5003251;28;20022;-68
2022/08/28 00:29:23;;;;;;;5.97;4.30;;;24.50;58.40;;;;;;4993980;28;20030;-68
2022/08/28 00:31:49;;;;;;;12.57;4.53;;;24.50;58.50;;;;;;4993065;28;20113;-68
2022/08/28 00:34:15;;;;;;;5.93;4.25;;;24.50;58.70;;;;;;5005459;28;20087;-68
2022/08/28 00:36:41;;;;;;;6.68;4.82;;;24.50;58.60;;;;;;5013501;28;20428;-68
2022/08/28 00:39:08;;;;;;;9.15;4.85;;;24.50;58.60;;;;;;5013377;28;20037;-68
2022/08/28 00:41:36;;;;;;;8.50;4.57;;;24.50;58.60;;;;;;5013004;28;20018;-68
2022/08/28 00:44:17;;;;;;;6.80;4.20;;;24.50;58.40;;;;;;5013317;28;20022;-68
2022/08/28 00:46:45;;;;;;;6.05;4.28;;;24.50;58.40;;;;;;5013402;28;20483;-68
2022/08/28 00:49:12;;;;;;;5.65;4.00;;;24.50;58.30;;;;;;5013289;28;20075;-68
2022/08/28 00:54:25;;;;;;;7.53;4.57;;;24.50;58.20;;;;;;4997557;28;20529;-68
2022/08/28 00:56:53;;;;;;;4.22;3.53;;;24.40;58.20;;;;;;4993672;28;20395;-68
2022/08/28 00:59:23;;;;;;;7.75;4.13;;;24.40;58.00;;;;;;4993610;28;20169;-68
2022/08/28 01:01:53;;;;;;;5.60;3.85;;;24.40;58.20;;;;;;4993615;28;20027;-68
2022/08/28 01:04:20;;;;;;;4.75;3.42;;;24.40;58.20;;;;;;5005638;28;20034;-68
2022/08/28 01:06:52;;;;;;;6.90;4.05;;;24.40;58.00;;;;;;5013062;28;20025;-68
2022/08/28 01:09:19;;;;;;;4.55;3.72;;;24.40;58.00;;;;;;5013145;28;20026;-67
2022/08/28 01:11:47;;;;;;;8.65;3.63;;;24.40;58.00;;;;;;5012950;28;20491;-68
2022/08/28 01:14:15;;;;;;;6.10;3.85;;;24.40;58.10;;;;;;5012943;28;20029;-68
2022/08/28 01:16:42;;;;;;;4.75;3.70;;;24.40;58.00;;;;;;5012900;28;20450;-68
2022/08/28 01:19:17;;;;;;;5.82;3.80;;;24.50;58.00;;;;;;5012830;28;20076;-68
2022/08/28 01:22:32;;;;;;;5.10;3.55;;;24.50;58.00;;;;;;5011413;28;20121;-68
2022/08/28 01:25:00;;;;;;;5.30;3.83;;;24.50;57.90;;;;;;5011647;28;20034;-68
2022/08/28 01:27:26;;;;;;;4.90;3.25;;;24.50;57.80;;;;;;5012791;28;20033;-68
2022/08/28 01:29:52;;;;;;;5.60;3.47;;;24.50;57.80;;;;;;5012761;28;20045;-68
2022/08/28 01:32:35;;;;;;;5.38;3.85;;;24.50;57.80;;;;;;5012817;28;20108;-68
2022/08/28 01:35:00;;;;;;;7.00;4.03;;;24.50;57.80;;;;;;5012330;28;20041;-68
2022/08/28 01:37:27;;;;;;;9.88;3.72;;;24.50;57.90;;;;;;5012695;28;20034;-68
2022/08/28 01:39:53;;;;;;;8.93;4.93;;;24.50;58.00;;;;;;5012702;28;20391;-68
2022/08/28 01:42:19;;;;;;;3.65;3.30;;;24.40;58.00;;;;;;5014065;28;20026;-68
2022/08/28 01:44:46;;;;;;;3.97;3.45;;;24.40;58.00;;;;;;5016405;28;20539;-68
2022/08/28 01:47:12;;;;;;;9.35;3.72;;;24.50;58.10;;;;;;5016339;28;20022;-68
2022/08/28 01:49:38;;;;;;;4.70;3.78;;;24.40;58.10;;;;;;5016321;28;20101;-68
2022/08/28 01:52:04;;;;;;;5.40;4.10;;;24.40;58.20;;;;;;5006776;28;20519;-68
2022/08/28 01:54:29;;;;;;;3.80;3.45;;;24.40;58.30;;;;;;4994561;28;20026;-68
2022/08/28 01:56:55;;;;;;;3.88;3.40;;;24.40;58.30;;;;;;4994485;28;20384;-68
2022/08/28 01:59:21;;;;;;;5.45;4.15;;;24.40;58.30;;;;;;4993595;28;20026;-68
2022/08/28 02:01:47;;;;;;;3.95;3.33;;;24.40;58.40;;;;;;4994943;28;20022;-68
2022/08/28 02:04:13;;;;;;;8.32;4.85;;;24.40;58.40;;;;;;4995557;28;20033;-68
2022/08/28 02:06:40;;;;;;;5.63;4.38;;;24.50;58.50;;;;;;4994901;28;20246;-68
2022/08/28 02:09:06;;;;;;;7.97;4.63;;;24.50;58.50;;;;;;4994961;28;20025;-68
2022/08/28 02:11:33;;;;;;;8.80;4.47;;;24.50;58.90;;;;;;4994963;28;20028;-67
2022/08/28 02:14:00;;;;;;;4.70;3.92;;;24.50;58.80;;;;;;4994739;28;20064;-68
2022/08/28 02:16:26;;;;;;;5.18;3.90;;;24.50;58.90;;;;;;4994849;28;20488;-68
2022/08/28 02:18:52;;;;;;;4.20;3.80;;;24.50;59.10;;;;;;4996645;28;20054;-68
2022/08/28 02:21:18;;;;;;;4.43;4.03;;;24.50;59.40;;;;;;4996954;28;20039;-68
2022/08/28 02:23:45;;;;;;;7.40;4.03;;;24.50;59.70;;;;;;5034141;28;20104;-68
2022/08/28 02:26:12;;;;;;;9.70;4.65;;;24.50;60.10;;;;;;5033260;28;20026;-68
2022/08/28 02:28:39;;;;;;;7.25;5.13;;;24.40;60.40;;;;;;5033934;28;20040;-68
2022/08/28 02:31:09;;;;;;;8.43;4.40;;;24.40;60.50;;;;;;5033867;28;20056;-68
2022/08/28 02:33:42;;;;;;;7.13;4.88;;;24.40;60.70;;;;;;5015758;28;20128;-68
2022/08/28 02:36:09;;;;;;;10.32;5.10;;;24.30;61.00;;;;;;5032783;28;20025;-68
2022/08/28 02:38:36;;;;;;;7.45;5.38;;;24.30;61.00;;;;;;5035085;28;20032;-68
2022/08/28 02:41:03;;;;;;;6.97;5.28;;;24.30;61.00;;;;;;5017351;28;20428;-68
2022/08/28 02:43:29;;;;;;;6.38;5.35;;;24.20;61.30;;;;;;5035051;28;20526;-68
2022/08/28 02:45:54;;;;;;;5.93;4.82;;;24.20;61.50;;;;;;5035052;28;20021;-68
2022/08/28 02:48:20;;;;;;;8.73;5.35;;;24.10;61.80;;;;;;5034941;28;20037;-68
2022/08/28 02:50:46;;;;;;;10.65;6.00;;;24.10;62.20;;;;;;5034659;28;20060;-67
2022/08/28 02:53:12;;;;;;;7.70;6.18;;;24.10;62.50;;;;;;5034034;28;20525;-68
2022/08/28 02:55:38;;;;;;;8.25;6.63;;;24.00;62.80;;;;;;5034373;28;20463;-68
2022/08/28 02:58:05;;;;;;;10.43;6.63;;;24.00;63.30;;;;;;5034501;28;20031;-67
2022/08/28 03:00:31;;;;;;;9.82;7.45;;;24.00;63.90;;;;;;5032683;28;20060;-67
2022/08/28 03:02:57;;;;;;;13.43;7.97;;;23.90;66.20;;;;;;5034092;28;20017;-66
2022/08/28 03:05:24;;;;;;;12.18;7.32;;;23.90;66.50;;;;;;5034134;28;20021;-65
2022/08/28 03:07:52;;;;;;;15.90;7.85;;;23.70;66.70;;;;;;5034462;28;20418;-66
2022/08/28 03:10:18;;;;;;;14.02;7.55;;;23.60;67.90;;;;;;5034494;28;20022;-66
2022/08/28 03:12:44;;;;;;;10.88;7.28;;;23.60;67.60;;;;;;5034476;28;20022;-66
2022/08/28 03:15:10;;;;;;;9.88;6.97;;;23.50;67.60;;;;;;5034430;28;20013;-65
2022/08/28 03:17:37;;;;;;;13.07;7.15;;;23.50;67.90;;;;;;5034438;28;20025;-66
2022/08/28 03:20:07;;;;;;;11.50;6.95;;;23.40;67.90;;;;;;5034287;28;20084;-66
2022/08/28 03:25:17;;;;;;;;;;;23.40;68.20;;;;;;5034764;28;20032;-67
2022/08/28 03:27:43;;;;;;;12.00;6.95;;;23.40;66.80;;;;;;5034219;28;19905;-67
2022/08/28 03:30:10;;;;;;;9.32;6.55;;;23.40;67.80;;;;;;5034125;28;20402;-68
2022/08/28 03:32:36;;;;;;;12.82;7.95;;;23.30;68.00;;;;;;5034076;28;20087;-66
2022/08/28 03:35:02;;;;;;;10.25;7.75;;;23.30;68.60;;;;;;5034230;28;20466;-68
2022/08/28 03:37:28;;;;;;;12.25;8.10;;;23.30;68.70;;;;;;5034043;28;20030;-69
2022/08/28 03:39:54;;;;;;;9.80;7.25;;;23.30;69.00;;;;;;5033911;28;20467;-68
2022/08/28 03:42:20;;;;;;;9.45;7.78;;;23.30;69.20;;;;;;5032716;28;20083;-68
2022/08/28 03:44:47;;;;;;;10.27;7.97;;;23.30;69.80;;;;;;5033951;28;20021;-69
2022/08/28 03:47:13;;;;;;;9.90;7.78;;;23.20;70.10;;;;;;5033739;28;20095;-68
2022/08/28 03:49:39;;;;;;;9.15;7.18;;;23.20;70.50;;;;;;5033522;28;20033;-69
2022/08/28 03:52:05;;;;;;;13.75;8.43;;;23.20;70.70;;;;;;5033582;28;20028;-69
2022/08/28 03:54:31;;;;;;;14.90;9.05;;;23.20;71.00;;;;;;5033543;28;20439;-69
2022/08/28 03:56:57;;;;;;;12.05;9.40;;;23.20;71.20;;;;;;5034455;28;20446;-69
2022/08/28 03:59:23;;;;;;;12.85;8.63;;;23.20;71.90;;;;;;5033409;28;20064;-67
2022/08/28 04:01:48;;;;;;;10.90;7.70;;;23.20;72.10;;;;;;5034062;28;20021;-68
2022/08/28 04:04:14;;;;;;;18.10;8.15;;;23.10;72.10;;;;;;5033519;28;20518;-67
2022/08/28 04:06:40;;;;;;;12.52;8.48;;;23.10;72.50;;;;;;5033226;28;20036;-68
2022/08/28 04:09:06;;;;;;;10.77;7.78;;;23.10;72.80;;;;;;5033426;28;20033;-68
2022/08/28 04:11:42;;;;;;;10.75;7.28;;;23.10;73.10;;;;;;5033433;28;20109;-69
2022/08/28 04:14:10;;;;;;;12.13;8.60;;;23.10;73.30;;;;;;5032118;28;20109;-69
2022/08/28 04:16:35;;;;;;;9.18;7.18;;;23.10;73.40;;;;;;5033380;28;20466;-68
2022/08/28 04:19:01;;;;;;;10.70;7.00;;;23.00;73.60;;;;;;5033209;28;20033;-69
2022/08/28 04:21:27;;;;;;;9.10;7.55;;;23.00;73.60;;;;;;5033010;28;20057;-68
2022/08/28 04:23:54;;;;;;;9.98;6.95;;;23.00;73.60;;;;;;5031931;28;20041;-69
2022/08/28 04:26:23;;;;;;;7.72;5.50;;;22.90;73.70;;;;;;5033309;28;20021;-68
2022/08/28 04:28:49;;;;;;;8.80;5.68;;;22.90;74.20;;;;;;5033169;28;20083;-68
2022/08/28 04:31:16;;;;;;;7.40;5.85;;;22.90;74.70;;;;;;5033263;28;20490;-69
2022/08/28 04:33:42;;;;;;;7.22;5.70;;;22.90;74.90;;;;;;5032025;28;20029;-69
2022/08/28 04:36:10;;;;;;;9.48;5.18;;;22.80;75.00;;;;;;5033229;28;20021;-69
2022/08/28 04:38:37;;;;;;;6.20;5.45;;;22.80;74.90;;;;;;5033122;28;20030;-69
2022/08/28 04:41:05;;;;;;;7.65;5.40;;;22.80;74.80;;;;;;5032956;28;20018;-69
2022/08/28 04:43:31;;;;;;;6.05;5.25;;;22.80;75.70;;;;;;5033115;28;20026;-68
2022/08/28 04:45:57;;;;;;;6.07;5.55;;;22.70;74.70;;;;;;5031819;28;20112;-68
2022/08/28 04:48:23;;;;;;;6.50;5.78;;;22.70;74.70;;;;;;5032966;28;20048;-68
2022/08/28 04:50:49;;;;;;;13.70;4.25;;;22.70;74.50;;;;;;5033306;28;20534;-68
2022/08/28 04:53:17;;;;;;;4.97;4.28;;;22.60;74.20;;;;;;5033004;28;20053;-69
2022/08/28 04:55:45;;;;;;;4.57;4.18;;;22.60;74.30;;;;;;5035694;28;20021;-68
2022/08/28 04:58:13;;;;;;;4.78;4.32;;;22.50;74.40;;;;;;5052775;28;20108;-69
2022/08/28 05:00:41;;;;;;;5.82;4.32;;;22.50;74.70;;;;;;5052868;28;20021;-68
2022/08/28 05:03:08;;;;;;;4.55;4.13;;;22.50;74.90;;;;;;5052784;28;20390;-68
2022/08/28 05:05:43;;;;;;;5.07;4.45;;;22.50;75.00;;;;;;5052731;28;20075;-69
2022/08/28 05:08:10;;;;;;;5.40;4.90;;;22.50;75.10;;;;;;5034853;28;20222;-68
2022/08/28 05:10:36;;;;;;;5.63;5.13;;;22.50;75.10;;;;;;5052762;28;20100;-68
2022/08/28 05:13:02;;;;;;;7.85;5.90;;;22.50;75.20;;;;;;5052735;28;20463;-69
2022/08/28 05:15:27;;;;;;;10.90;5.43;;;22.50;75.20;;;;;;5034795;28;20060;-68
2022/08/28 05:17:53;;;;;;;10.75;5.95;;;22.50;75.10;;;;;;5054852;28;20475;-68
2022/08/28 05:20:19;;;;;;;7.63;5.72;;;22.60;75.20;;;;;;5056698;28;20029;-68
2022/08/28 05:22:46;;;;;;;5.13;4.63;;;22.60;75.40;;;;;;5056537;28;20052;-69
2022/08/28 05:25:13;;;;;;;5.85;5.13;;;22.60;75.30;;;;;;5056585;28;20032;-68
2022/08/28 05:27:40;;;;;;;5.45;4.60;;;22.60;75.40;;;;;;5037335;28;20025;-68
2022/08/28 05:30:09;;;;;;;7.60;4.63;;;22.60;75.50;;;;;;5036597;28;20026;-69
2022/08/28 05:32:35;;;;;;;6.10;5.50;;;22.70;75.80;;;;;;5036376;28;20098;-69
2022/08/28 05:35:01;;;;;;;5.68;5.13;;;22.80;75.90;;;;;;5036439;28;20021;-68
2022/08/28 05:37:27;;;;;;;6.63;6.03;;;22.80;75.40;;;;;;5036396;28;20530;-68
2022/08/28 05:39:52;;;;;;;7.47;5.97;;;22.80;75.20;;;;;;5036305;28;20029;-68
2022/08/28 05:42:18;;;;;;;7.28;5.63;;;22.90;74.80;;;;;;5036364;28;20383;-69
2022/08/28 05:44:44;;;;;;;7.50;5.70;;;22.90;74.50;;;;;;5035019;28;20071;-68
2022/08/28 05:47:10;;;;;;;6.70;5.75;;;22.90;75.10;;;;;;5036147;28;20022;-68
2022/08/28 05:49:36;;;;;;;8.38;5.55;;;22.90;74.20;;;;;;5036167;28;20022;-69
2022/08/28 05:52:02;;;;;;;6.13;4.72;;;22.90;74.30;;;;;;5035633;28;20032;-68
2022/08/28 05:54:27;;;;;;;5.65;5.05;;;22.90;74.60;;;;;;5035627;28;20064;-69
2022/08/28 05:56:53;;;;;;;5.43;4.05;;;23.00;74.40;;;;;;5035294;28;20387;-68
2022/08/28 05:59:19;;;;;;;4.32;3.85;;;23.00;74.10;;;;;;5035620;28;20387;-69
2022/08/28 06:01:47;;;;;;;7.35;4.78;;;23.00;74.20;;;;;;5035587;28;20533;-69
2022/08/28 06:04:21;;;;;;;6.63;4.80;;;23.00;74.10;;;;;;5035553;28;20087;-69
2022/08/28 06:06:48;;;;;;;5.18;4.68;;;23.00;73.90;;;;;;5035384;28;20375;-69
2022/08/28 06:09:27;;;;;;;4.63;4.22;;;23.00;73.80;;;;;;5017847;28;20021;-69
2022/08/28 06:11:54;;;;;;;5.20;4.70;;;23.10;74.20;;;;;;5033440;28;20039;-69
2022/08/28 06:14:20;;;;;;;7.63;4.75;;;23.10;73.90;;;;;;5035514;28;20025;-69
2022/08/28 06:16:49;;;;;;;6.65;4.72;;;23.10;73.50;;;;;;5035763;28;20543;-69
2022/08/28 06:19:15;;;;;;;7.57;5.03;;;23.10;73.50;;;;;;5035665;28;20030;-69
2022/08/28 06:21:42;;;;;;;7.22;5.15;;;23.10;73.60;;;;;;5035178;28;20114;-69
2022/08/28 06:24:12;;;;;;;7.22;5.13;;;23.20;74.00;;;;;;5035730;28;20022;-69
2022/08/28 06:26:38;;;;;;;8.38;4.35;;;23.20;74.20;;;;;;5030871;28;20113;-69
2022/08/28 06:29:07;;;;;;;5.07;4.57;;;23.30;74.30;;;;;;5035234;28;20025;-69
2022/08/28 06:31:33;;;;;;;6.95;4.57;;;23.40;74.20;;;;;;5035504;28;20086;-69
2022/08/28 06:34:00;;;;;;;5.53;4.28;;;23.40;74.30;;;;;;5035454;28;20104;-69
2022/08/28 06:36:28;;;;;;;6.70;4.93;;;23.50;74.00;;;;;;5035341;28;20479;-70
2022/08/28 06:38:57;;;;;;;7.65;5.13;;;23.50;73.30;;;;;;5035250;28;20148;-69
2022/08/28 06:41:24;;;;;;;5.72;4.38;;;23.60;73.30;;;;;;5017540;28;20022;-69
2022/08/28 06:43:50;;;;;;;4.72;4.25;;;23.60;73.50;;;;;;5035231;28;20086;-69
2022/08/28 06:46:16;;;;;;;5.90;4.13;;;23.70;73.60;;;;;;5035110;28;20025;-69
2022/08/28 06:48:42;;;;;;;4.47;3.90;;;23.60;73.10;;;;;;5035067;28;20022;-69
2022/08/28 06:51:10;;;;;;;8.65;4.20;;;23.60;73.00;;;;;;5035352;28;20033;-69
2022/08/28 06:53:38;;;;;;;5.63;4.30;;;23.70;73.20;;;;;;5035062;28;20033;-69
2022/08/28 06:56:19;;;;;;;5.45;4.05;;;23.70;72.80;;;;;;5039428;28;20017;-69
2022/08/28 06:58:48;;;;;;;5.38;4.15;;;23.70;72.20;;;;;;5054845;28;20482;-69
2022/08/28 07:01:24;;;;;;;4.82;3.83;;;23.70;72.20;;;;;;5054849;28;20067;-69
2022/08/28 07:03:53;;;;;;;7.03;3.95;;;23.70;72.30;;;;;;5036998;28;20573;-69
2022/08/28 07:06:21;;;;;;;5.50;3.90;;;23.70;72.30;;;;;;5036850;28;20021;-69
2022/08/28 07:08:47;;;;;;;3.67;3.30;;;23.70;72.30;;;;;;5054694;28;20029;-69
2022/08/28 07:11:15;;;;;;;4.75;4.10;;;23.70;72.70;;;;;;5054708;28;20024;-69
2022/08/28 07:13:43;;;;;;;7.40;4.45;;;23.70;72.50;;;;;;5054565;28;20029;-69
2022/08/28 07:16:14;;;;;;;9.27;4.10;;;23.80;72.50;;;;;;5054508;28;20083;-69
2022/08/28 07:18:40;;;;;;;3.75;3.45;;;23.80;72.70;;;;;;5054440;28;20439;-69
2022/08/28 07:21:06;;;;;;;4.63;4.22;;;23.90;73.20;;;;;;5054516;28;20060;-69
2022/08/28 07:23:34;;;;;;;4.60;3.97;;;23.90;73.50;;;;;;5054286;28;20116;-69
2022/08/28 07:26:05;;;;;;;5.53;4.00;;;24.00;74.10;;;;;;5050207;28;20021;-69
2022/08/28 07:28:31;;;;;;;6.07;4.53;;;24.10;74.40;;;;;;5034387;28;20017;-69
2022/08/28 07:31:03;;;;;;;7.57;4.75;;;24.20;74.50;;;;;;5034357;28;20028;-69
2022/08/28 07:33:31;;;;;;;5.63;4.93;;;24.40;73.80;;;;;;5016268;28;20403;-69
2022/08/28 07:35:59;;;;;;;5.63;4.90;;;24.50;73.80;;;;;;5016477;28;20026;-68
2022/08/28 07:38:26;;;;;;;5.45;4.97;;;24.60;73.80;;;;;;5034053;28;20116;-68
2022/08/28 07:40:53;;;;;;;5.35;4.85;;;24.70;73.40;;;;;;5033634;28;20120;-68
2022/08/28 07:46:06;;;;;;;6.45;5.32;;;24.90;73.50;;;;;;5034300;28;20080;-69
2022/08/28 07:48:36;;;;;;;5.57;5.07;;;25.00;72.70;;;;;;5033863;28;20030;-69
2022/08/28 07:51:03;;;;;;;4.70;4.30;;;25.10;71.70;;;;;;5016194;28;20529;-68
2022/08/28 07:53:29;;;;;;;5.28;4.57;;;25.10;71.40;;;;;;5016057;28;20049;-68
2022/08/28 07:55:55;;;;;;;7.53;4.90;;;25.20;71.90;;;;;;5036205;28;20463;-68
2022/08/28 07:58:22;;;;;;;5.97;5.20;;;25.20;71.70;;;;;;5035739;28;20068;-68
2022/08/28 08:00:48;;;;;;;7.18;4.82;;;25.20;71.10;;;;;;5035689;28;20498;-69
2022/08/28 08:03:14;;;;;;;5.97;5.38;;;25.20;70.00;;;;;;5053636;28;20398;-68
2022/08/28 08:05:40;;;;;;;7.80;4.78;;;25.30;69.30;;;;;;5053455;28;20017;-68
2022/08/28 08:08:06;;;;;;;8.98;5.07;;;25.30;69.80;;;;;;5053459;28;20082;-69
2022/08/28 08:10:31;;;;;;;5.68;5.18;;;25.30;70.70;;;;;;5053519;28;20100;-69
2022/08/28 08:12:57;;;;;;;7.03;6.07;;;25.30;71.10;;;;;;5053523;28;20062;-69
2022/08/28 08:15:23;;;;;;;5.85;5.30;;;25.40;71.50;;;;;;5053432;28;20029;-68
2022/08/28 08:17:49;;;;;;;5.60;5.00;;;25.50;71.50;;;;;;5053388;28;20031;-69
2022/08/28 08:20:15;;;;;;;5.90;5.40;;;25.50;71.30;;;;;;5053307;28;20025;-68
2022/08/28 08:22:40;;;;;;;5.88;5.18;;;25.60;71.00;;;;;;5053139;28;20055;-68
2022/08/28 08:25:07;;;;;;;8.43;6.30;;;25.70;70.70;;;;;;5053335;28;20049;-69
2022/08/28 08:27:34;;;;;;;7.50;6.13;;;25.70;69.30;;;;;;5031470;28;20091;-68
2022/08/28 08:30:00;;;;;;;6.53;5.72;;;25.70;69.50;;;;;;5031983;28;20083;-69
2022/08/28 08:32:26;;;;;;;6.38;5.72;;;25.80;68.90;;;;;;5033289;28;20025;-69
2022/08/28 08:34:54;;;;;;;6.57;5.75;;;25.80;69.00;;;;;;5015594;28;20475;-68
2022/08/28 08:37:20;;;;;;;5.88;5.30;;;25.80;70.30;;;;;;5015473;28;20029;-69
2022/08/28 08:39:46;;;;;;;10.07;6.15;;;25.90;71.00;;;;;;5015418;28;20025;-68
2022/08/28 08:42:28;;;;;;;7.18;6.47;;;26.00;70.30;;;;;;5033036;28;20028;-69
2022/08/28 08:45:02;;;;;;;8.57;6.70;;;26.10;70.00;;;;;;5033065;28;20022;-68
2022/08/28 08:47:47;;;;;;;8.23;5.80;;;26.20;70.50;;;;;;5033103;28;20017;-68
2022/08/28 08:50:21;;;;;;;6.25;5.63;;;26.30;70.00;;;;;;5033029;28;20360;-68
2022/08/28 08:52:50;;;;;;;;;;;26.40;69.50;;;;;;5032489;28;20506;-69
2022/08/28 08:55:27;;;;;;;7.10;5.28;;;26.50;69.80;;;;;;5031727;28;19952;-69
2022/08/28 08:58:04;;;;;;;8.55;4.90;;;26.60;69.30;;;;;;5045540;28;20029;-69
2022/08/28 09:00:51;;;;;;;5.30;4.80;;;26.60;68.30;;;;;;5032087;28;20056;-69
2022/08/28 09:03:24;;;;;;;5.55;5.03;;;26.70;68.10;;;;;;5032844;28;20052;-68
2022/08/28 09:06:05;;;;;;;6.93;5.13;;;26.80;67.70;;;;;;5032434;28;20033;-68
2022/08/28 09:08:46;;;;;;;6.30;5.30;;;26.80;67.90;;;;;;5031543;28;20032;-69
2022/08/28 09:11:33;;;;;;;5.75;4.80;;;26.90;67.20;;;;;;5030697;28;20022;-69
2022/08/28 09:14:11;;;;;;;5.10;4.47;;;26.90;66.90;;;;;;5031615;28;20041;-68
2022/08/28 09:16:44;;;;;;;5.32;4.70;;;27.00;65.50;;;;;;5029767;28;20026;-68
2022/08/28 09:19:15;;;;;;;6.25;5.18;;;27.00;64.80;;;;;;5030681;28;20034;-70
2022/08/28 09:21:43;;;;;;;5.47;4.93;;;27.00;67.10;;;;;;5030035;28;20846;-69
2022/08/28 09:24:29;;;;;;;5.22;4.60;;;27.10;65.10;;;;;;5028953;28;20471;-68
2022/08/28 09:27:02;;;;;;;6.07;5.22;;;27.10;65.00;;;;;;5031968;28;20117;-68
2022/08/28 09:29:38;;;;;;;5.80;4.22;;;27.10;64.10;;;;;;5028758;28;20017;-68
2022/08/28 09:32:43;;;;;;;5.72;4.50;;;27.20;64.60;;;;;;5031165;28;20025;-68
2022/08/28 09:35:28;;;;;;;5.03;4.53;;;27.20;64.90;;;;;;5029037;28;20026;-67
2022/08/28 09:38:17;;;;;;;6.57;5.20;;;27.30;64.70;;;;;;5028721;28;20435;-67
2022/08/28 09:43:27;;;;;;;5.00;4.18;;;27.50;64.30;;;;;;5031120;28;20037;-69
2022/08/28 09:46:15;;;;;;;4.97;4.13;;;27.60;64.90;;;;;;5031438;28;20487;-68
2022/08/28 09:48:44;;;;;;;4.82;3.75;;;27.70;64.50;;;;;;5032006;28;20457;-67
2022/08/28 09:51:28;;;;;;;3.72;3.42;;;27.80;65.50;;;;;;5032520;28;20109;-69
2022/08/28 09:53:53;;;;;;;4.35;3.45;;;28.00;65.30;;;;;;5032565;28;20018;-69
2022/08/28 09:56:33;;;;;;;4.80;4.10;;;28.20;65.40;;;;;;5036742;28;20458;-69
2022/08/28 09:59:05;;;;;;;5.38;3.65;;;28.30;62.40;;;;;;5052245;28;20029;-68
2022/08/28 10:01:50;;;;;;;3.80;3.40;;;28.40;62.00;;;;;;5052298;28;20052;-68
2022/08/28 10:04:24;;;;;;;3.90;3.58;;;28.50;63.60;;;;;;5055019;28;20036;-68
2022/08/28 10:07:14;;;;;;;4.00;3.60;;;28.60;62.30;;;;;;5055804;28;20025;-68
2022/08/28 10:10:18;;;;;;;3.75;3.33;;;28.70;62.20;;;;;;5055277;28;20044;-69
2022/08/28 10:13:00;;;;;;;4.55;3.50;;;28.80;62.80;;;;;;5055833;28;20021;-69
2022/08/28 10:16:01;;;;;;;5.95;3.70;;;28.90;62.10;;;;;;5041613;28;20091;-67
2022/08/28 10:18:45;;;;;;;3.70;3.33;;;29.00;60.30;;;;;;5032586;28;20128;-68
2022/08/28 10:21:22;;;;;;;4.57;4.03;;;29.00;59.80;;;;;;5035752;28;20021;-67
2022/08/28 10:24:08;;;;;;;3.40;3.10;;;29.00;58.80;;;;;;5035891;28;20391;-68
2022/08/28 10:27:01;;;;;;;6.97;3.60;;;28.90;59.90;;;;;;5034094;28;20018;-68
2022/08/28 10:30:06;;;;;;;3.83;2.90;;;28.90;59.10;;;;;;5035370;28;20025;-68
2022/08/28 10:32:56;;;;;;;3.35;3.05;;;28.90;60.50;;;;;;4974153;28;20562;-67
2022/08/28 10:35:31;;;;;;;3.63;3.17;;;28.90;59.90;;;;;;4974519;28;20070;-69
2022/08/28 10:38:07;;;;;;;3.22;2.92;;;28.90;59.30;;;;;;4974559;28;20527;-69
2022/08/28 10:40:50;;;;;;;3.88;3.17;;;28.90;60.40;;;;;;4958175;28;20063;-68
2022/08/28 10:43:33;;;;;;;3.97;3.58;;;28.80;59.00;;;;;;4974420;28;20093;-69
2022/08/28 10:46:04;;;;;;;3.55;3.08;;;28.80;58.90;;;;;;4974395;28;20411;-69
2022/08/28 10:48:45;;;;;;;3.58;3.22;;;28.80;60.60;;;;;;4974265;28;20041;-68
2022/08/28 10:51:30;;;;;;;4.15;3.17;;;28.80;60.20;;;;;;4958046;28;20090;-69
2022/08/28 10:54:01;;;;;;;3.85;3.15;;;28.80;58.80;;;;;;4974216;28;20035;-69
2022/08/28 10:56:42;;;;;;;3.42;3.13;;;28.90;58.10;;;;;;4973795;28;20039;-68
2022/08/28 10:59:09;;;;;;;4.00;3.40;;;28.90;58.50;;;;;;4974056;28;20530;-68
2022/08/28 11:01:38;;;;;;;2.85;2.65;;;28.90;57.40;;;;;;4974052;28;20122;-67
2022/08/28 11:04:14;;;;;;;4.03;3.63;;;28.90;58.00;;;;;;4973957;28;20037;-68
2022/08/28 11:06:42;;;;;;;5.15;2.92;;;28.90;57.40;;;;;;4973875;28;20091;-68
2022/08/28 11:09:26;;;;;;;4.68;3.25;;;28.90;57.30;;;;;;5030762;28;20391;-68
2022/08/28 11:11:55;;;;;;;4.90;3.22;;;28.80;56.70;;;;;;5034734;28;20083;-69
2022/08/28 11:14:29;;;;;;;7.03;3.50;;;28.70;57.70;;;;;;5034005;28;20527;-68
2022/08/28 11:17:01;;;;;;;5.38;3.80;;;28.70;58.90;;;;;;5034736;28;20083;-68
2022/08/28 11:19:41;;;;;;;7.53;3.53;;;28.70;58.10;;;;;;5034542;28;20056;-67
2022/08/28 11:22:18;;;;;;;4.65;3.10;;;28.70;58.70;;;;;;5034446;28;20499;-67
2022/08/28 11:24:51;;;;;;;6.43;3.05;;;28.70;58.50;;;;;;5034476;28;20446;-68
2022/08/28 11:27:29;;;;;;;3.55;2.90;;;28.70;56.30;;;;;;5046086;28;20025;-68
2022/08/28 11:30:27;;;;;;;3.58;3.20;;;28.70;56.70;;;;;;5054427;28;20029;-67
2022/08/28 11:32:52;;;;;;;5.38;2.88;;;28.60;55.80;;;;;;5054183;28;20086;-67
2022/08/28 11:35:41;;;;;;;4.30;2.88;;;28.60;55.40;;;;;;5054333;28;20032;-67
2022/08/28 11:38:08;;;;;;;4.13;3.33;;;28.50;55.70;;;;;;5027247;28;20387;-69
2022/08/28 11:40:34;;;;;;;3.17;2.88;;;28.40;55.80;;;;;;5034553;28;20024;-66
2022/08/28 11:43:15;;;;;;;2.95;2.75;;;28.30;56.60;;;;;;5034218;28;20017;-65
2022/08/28 11:45:53;;;;;;;2.75;2.30;;;28.30;57.00;;;;;;5032909;28;20398;-66
2022/08/28 11:48:24;;;;;;;3.17;2.50;;;28.20;55.70;;;;;;5034122;28;20044;-65
2022/08/28 11:51:01;;;;;;;2.67;2.45;;;28.10;57.40;;;;;;5034027;28;20025;-67
2022/08/28 11:53:51;;;;;;;2.92;2.63;;;28.10;56.20;;;;;;5034328;28;20018;-66
2022/08/28 11:56:43;;;;;;;3.28;2.35;;;28.10;57.60;;;;;;5036831;28;20048;-66
2022/08/28 11:59:21;;;;;;;2.30;2.10;;;28.10;56.90;;;;;;5053973;28;20494;-66
2022/08/28 12:01:48;;;;;;;3.17;2.42;;;28.10;58.30;;;;;;5053736;28;20528;-67
2022/08/28 12:04:17;;;;;;;3.13;2.40;;;28.10;57.50;;;;;;5053641;28;20500;-66
2022/08/28 12:06:49;;;;;;;4.97;2.70;;;28.10;58.10;;;;;;5053576;28;20079;-68
2022/08/28 12:09:44;;;;;;;2.10;1.90;;;28.10;56.90;;;;;;5053709;28;20420;-68
2022/08/28 12:12:12;;;;;;;4.05;2.40;;;28.10;57.40;;;;;;5035689;28;20029;-67
2022/08/28 12:14:38;;;;;;;2.55;2.35;;;28.10;58.90;;;;;;5053837;28;20025;-67
2022/08/28 12:17:20;;;;;;;2.50;2.05;;;28.10;58.40;;;;;;5053480;28;20028;-66
2022/08/28 12:19:55;;;;;;;2.95;2.03;;;28.10;58.60;;;;;;5041712;28;20022;-67
2022/08/28 12:22:25;;;;;;;3.53;2.10;;;28.10;58.50;;;;;;5033256;28;20049;-68
2022/08/28 12:24:58;;;;;;;4.72;2.40;;;27.90;59.70;;;;;;5033480;28;20018;-69
2022/08/28 12:27:24;;;;;;;9.53;3.03;;;27.80;62.00;;;;;;5033986;28;20112;-68
2022/08/28 12:29:54;;;;;;;10.02;3.63;;;27.50;62.80;;;;;;5033314;28;20665;-68
2022/08/28 12:32:45;;;;;;;5.25;4.10;;;27.10;66.80;;;;;;5033203;28;20119;-68
2022/08/28 12:35:21;;;;;;;3.75;2.20;;;26.70;66.30;;;;;;5033288;28;20104;-70
2022/08/28 12:37:53;;;;;;;1.70;1.58;;;26.40;67.10;;;;;;5033233;28;20036;-68
2022/08/28 12:40:26;;;;;;;2.75;1.50;;;26.00;68.40;;;;;;5033096;28;20104;-70
2022/08/28 12:42:53;;;;;;;2.13;1.80;;;25.80;70.30;;;;;;5033203;28;20017;-69
2022/08/28 12:45:31;;;;;;;5.38;1.70;;;25.70;71.80;;;;;;5033181;28;20032;-69
2022/08/28 12:48:01;;;;;;;5.80;2.13;;;25.60;70.40;;;;;;5032162;28;20416;-69
2022/08/28 12:50:35;;;;;;;3.17;1.98;;;25.50;69.90;;;;;;5031832;28;20030;-69
2022/08/28 12:53:04;;;;;;;4.18;1.60;;;25.40;70.40;;;;;;5033084;28;20159;-69
2022/08/28 12:55:31;;;;;;;8.48;1.80;;;25.40;70.90;;;;;;5015223;28;20044;-69
2022/08/28 12:57:57;;;;;;;5.72;1.98;;;25.40;70.90;;;;;;5030944;28;20052;-69
2022/08/28 13:00:30;;;;;;;2.72;1.48;;;25.40;71.20;;;;;;5052771;28;20036;-69
2022/08/28 13:02:57;;;;;;;2.67;1.50;;;25.40;70.60;;;;;;5052914;28;20096;-69
2022/08/28 13:05:35;;;;;;;1.98;1.50;;;25.50;70.50;;;;;;5052406;28;20101;-68
2022/08/28 13:08:07;;;;;;;4.38;2.17;;;25.60;70.30;;;;;;5052711;28;20025;-69
2022/08/28 13:10:47;;;;;;;2.78;1.50;;;25.70;70.30;;;;;;5052755;28;20417;-69
2022/08/28 13:13:25;;;;;;;2.58;1.50;;;25.70;69.10;;;;;;5052719;28;20017;-68
2022/08/28 13:15:54;;;;;;;3.15;1.70;;;25.80;68.10;;;;;;5052758;28;20146;-68
2022/08/28 13:18:38;;;;;;;1.70;1.60;;;25.80;67.70;;;;;;5052474;28;20032;-69